Time;durP1;ratioP1;P1;durP2;ratioP2;P2;SDS_P1;SDS_P2;PMS_P1;PMS_P2;Temp;Humidity;BMP_temperature;BMP_pressure;BME280_temperature;BME280_humidity;BME280_pressure;Samples;Min_cycle;Max_cycle;Signal;HPM_P1;HPM_P2
2023/12/08 00:04:33;;;;;;;25.30;9.55;;;;;;;3.44;71.20;99948.38;10280867;28;20087;-58
2023/12/08 00:09:34;;;;;;;27.38;11.15;;;;;;;3.50;71.05;99943.31;10302361;28;20057;-57
2023/12/08 00:14:36;;;;;;;27.42;9.93;;;;;;;3.65;70.43;99930.41;10296336;28;20039;-57
2023/12/08 00:19:37;;;;;;;27.23;10.25;;;;;;;3.66;71.09;99924.13;10297221;28;20141;-57
2023/12/08 00:24:39;;;;;;;22.73;10.40;;;;;;;3.65;70.92;99933.06;10287679;28;20031;-57
2023/12/08 00:29:40;;;;;;;21.77;9.35;;;;;;;3.65;71.20;99930.41;10280864;28;20054;-57
2023/12/08 00:34:42;;;;;;;22.58;9.05;;;;;;;3.74;70.58;99923.44;10302013;28;20047;-58
2023/12/08 00:39:43;;;;;;;19.95;9.40;;;;;;;3.83;70.52;99909.28;10294632;28;20062;-58
2023/12/08 00:44:45;;;;;;;20.80;8.98;;;;;;;3.83;70.76;99896.00;10296914;28;20047;-57
2023/12/08 00:49:47;;;;;;;20.38;9.60;;;;;;;3.96;70.50;99874.41;10299429;28;20048;-58
2023/12/08 00:54:49;;;;;;;24.90;10.00;;;;;;;4.04;70.09;99865.69;10300104;28;20142;-59
2023/12/08 00:59:50;;;;;;;24.27;10.88;;;;;;;4.06;69.87;99875.19;10292842;28;20047;-57
2023/12/08 01:04:52;;;;;;;24.92;10.13;;;;;;;3.87;70.71;99885.88;10299153;28;20047;-57
2023/12/08 01:09:53;;;;;;;17.95;9.82;;;;;;;3.81;70.94;99891.78;10294523;28;20528;-57
2023/12/08 01:14:54;;;;;;;22.10;10.15;;;;;;;4.00;70.52;99896.22;10292258;28;20057;-57
2023/12/08 01:19:56;;;;;;;23.13;10.10;;;;;;;4.07;69.82;99892.84;10297013;28;20504;-58
2023/12/08 01:24:57;;;;;;;18.75;8.40;;;;;;;4.07;70.37;99898.16;10290071;28;20043;-58
2023/12/08 01:29:59;;;;;;;19.60;9.00;;;;;;;4.10;70.03;99876.56;10293025;28;20162;-57
2023/12/08 01:35:00;;;;;;;22.08;8.90;;;;;;;4.14;69.87;99856.69;10295754;28;20046;-58
2023/12/08 01:40:03;;;;;;;22.30;10.23;;;;;;;4.15;69.90;99841.56;10293936;28;20046;-57
2023/12/08 01:45:05;;;;;;;20.33;9.25;;;;;;;4.17;70.04;99835.13;10295709;28;20101;-58
2023/12/08 01:50:09;;;;;;;21.63;9.13;;;;;;;4.26;69.42;99854.66;10296193;28;20497;-58
2023/12/08 01:55:11;;;;;;;19.42;8.23;;;;;;;4.25;68.80;99846.84;10290974;28;20042;-58
2023/12/08 02:00:13;;;;;;;18.85;8.60;;;;;;;4.29;69.68;99835.75;10291815;28;20074;-58
2023/12/08 02:05:16;;;;;;;23.02;9.90;;;;;;;4.37;68.78;99841.16;10280935;28;20042;-58
2023/12/08 02:10:18;;;;;;;24.33;9.40;;;;;;;4.38;68.76;99823.38;10299474;28;20043;-58
2023/12/08 02:15:20;;;;;;;20.55;9.10;;;;;;;4.44;68.58;99811.28;10289802;28;20379;-58
2023/12/08 02:20:22;;;;;;;21.20;9.38;;;;;;;4.49;68.78;99811.69;10294439;28;20053;-58
2023/12/08 02:25:23;;;;;;;18.48;9.27;;;;;;;4.50;68.67;99808.03;10291627;28;20414;-58
2023/12/08 02:30:25;;;;;;;20.63;9.00;;;;;;;4.53;68.47;99803.25;10302164;28;20051;-58
2023/12/08 02:35:29;;;;;;;18.95;9.05;;;;;;;4.55;68.57;99814.59;10305526;28;20513;-58
2023/12/08 02:40:30;;;;;;;17.90;8.35;;;;;;;4.55;68.46;99816.41;10304297;28;20061;-58
2023/12/08 02:45:32;;;;;;;17.00;9.00;;;;;;;4.55;68.40;99809.25;10302350;28;20112;-57
2023/12/08 02:50:33;;;;;;;20.73;10.38;;;;;;;4.59;68.36;99790.34;10303304;28;20042;-58
2023/12/08 02:55:35;;;;;;;18.05;9.20;;;;;;;4.60;67.90;99776.03;10302509;28;20085;-57
2023/12/08 03:00:37;;;;;;;23.65;10.88;;;;;;;4.61;67.83;99767.06;10301691;28;20054;-57
2023/12/08 03:05:38;;;;;;;20.48;9.65;;;;;;;4.50;68.34;99786.75;10300592;28;20038;-57
2023/12/08 03:10:40;;;;;;;21.45;9.30;;;;;;;4.23;68.77;99795.63;10305269;28;20094;-57
2023/12/08 03:15:41;;;;;;;24.65;10.18;;;;;;;4.13;68.86;99775.22;10303120;28;20051;-58
2023/12/08 03:20:42;;;;;;;21.83;8.85;;;;;;;4.31;68.38;99766.44;10284897;28;20050;-57
2023/12/08 03:25:44;;;;;;;18.38;9.02;;;;;;;4.39;67.93;99761.19;10299795;28;20132;-57
2023/12/08 03:30:45;;;;;;;21.75;9.27;;;;;;;4.45;68.01;99752.63;10300541;28;20050;-58
2023/12/08 03:35:47;;;;;;;19.17;8.63;;;;;;;4.37;68.20;99747.22;10298299;28;20042;-57
2023/12/08 03:40:48;;;;;;;20.48;9.25;;;;;;;4.40;68.32;99738.91;10299638;28;20046;-57
2023/12/08 03:45:50;;;;;;;19.95;8.98;;;;;;;4.43;68.43;99754.59;10296024;28;20570;-57
2023/12/08 03:50:51;;;;;;;20.55;9.82;;;;;;;4.41;68.15;99753.06;10304563;28;20661;-57
2023/12/08 03:55:52;;;;;;;19.98;9.88;;;;;;;4.40;67.84;99760.19;10303372;28;20065;-57
2023/12/08 04:00:54;;;;;;;20.98;9.05;;;;;;;4.48;67.92;99754.13;10280927;28;20046;-57
2023/12/08 04:05:56;;;;;;;21.63;8.98;;;;;;;4.55;68.06;99752.53;10298806;28;20121;-57
2023/12/08 04:10:57;;;;;;;21.30;9.77;;;;;;;4.52;67.74;99737.72;10300507;28;20046;-57
2023/12/08 04:15:59;;;;;;;18.35;8.68;;;;;;;4.59;67.83;99718.47;10297867;28;20038;-57
2023/12/08 04:21:00;;;;;;;22.10;9.18;;;;;;;4.62;67.74;99715.50;10301790;28;20043;-56
2023/12/08 04:26:06;;;;;;;19.17;9.15;;;;;;;4.66;67.87;99712.38;10302452;28;20133;-59
2023/12/08 04:31:07;;;;;;;22.50;9.55;;;;;;;4.75;67.08;99715.94;10299203;28;20057;-57
2023/12/08 04:36:09;;;;;;;17.67;8.18;;;;;;;4.72;67.71;99713.56;10298972;28;20540;-56
2023/12/08 04:41:10;;;;;;;17.85;9.00;;;;;;;4.77;66.92;99713.97;10295997;28;20042;-56
2023/12/08 04:46:12;;;;;;;21.95;10.55;;;;;;;4.61;67.61;99722.66;10274510;28;20039;-57
2023/12/08 04:51:13;;;;;;;21.48;9.52;;;;;;;4.52;67.77;99712.91;10294954;28;20038;-56
2023/12/08 04:56:14;;;;;;;20.15;9.27;;;;;;;4.53;67.91;99703.94;10282749;28;20072;-56
2023/12/08 05:01:16;;;;;;;20.63;9.80;;;;;;;4.34;68.52;99704.94;10298266;28;20058;-58
2023/12/08 05:06:20;;;;;;;22.42;10.20;;;;;;;4.24;68.71;99707.66;10301530;28;20050;-57
2023/12/08 05:11:21;;;;;;;24.80;10.20;;;;;;;4.27;68.45;99703.88;10293907;28;20046;-57
2023/12/08 05:16:23;;;;;;;20.73;9.13;;;;;;;4.22;68.73;99708.81;10291206;28;20055;-58
2023/12/08 05:21:24;;;;;;;24.70;10.73;;;;;;;4.09;68.32;99709.19;10279985;28;20050;-57
2023/12/08 05:26:25;;;;;;;20.77;9.68;;;;;;;4.09;68.72;99709.19;10297383;28;20050;-57
2023/12/08 05:31:27;;;;;;;24.40;10.57;;;;;;;4.03;68.96;99709.75;10298636;28;20046;-57
2023/12/08 05:36:28;;;;;;;22.67;9.55;;;;;;;4.03;69.03;99710.63;10301308;28;20133;-57
2023/12/08 05:41:30;;;;;;;24.58;10.45;;;;;;;4.01;68.68;99715.25;10296452;28;20045;-56
2023/12/08 05:46:31;;;;;;;23.33;9.88;;;;;;;3.93;69.08;99718.66;10284955;28;20042;-56
2023/12/08 05:51:32;;;;;;;21.58;10.10;;;;;;;3.92;69.33;99724.13;10298783;28;20050;-57
2023/12/08 05:56:34;;;;;;;23.63;10.68;;;;;;;3.87;69.61;99729.88;10297794;28;20053;-57
2023/12/08 06:01:35;;;;;;;25.92;10.57;;;;;;;3.88;69.47;99731.56;10298902;28;20058;-58
2023/12/08 06:06:38;;;;;;;26.77;10.32;;;;;;;3.88;69.80;99720.91;10298757;28;20053;-58
2023/12/08 06:11:41;;;;;;;22.83;9.95;;;;;;;3.83;69.80;99719.69;10298738;28;20050;-59
2023/12/08 06:16:43;;;;;;;21.65;10.85;;;;;;;3.82;69.81;99723.34;10298877;28;20082;-56
2023/12/08 06:21:45;;;;;;;22.55;9.88;;;;;;;3.80;69.99;99735.94;10291049;28;20057;-57
2023/12/08 06:26:46;;;;;;;26.35;10.43;;;;;;;3.74;70.54;99751.47;10294296;28;20441;-56
2023/12/08 06:31:47;;;;;;;26.58;9.98;;;;;;;3.60;70.96;99753.81;10297401;28;20054;-56
2023/12/08 06:36:49;;;;;;;33.35;11.40;;;;;;;3.47;71.36;99767.41;10298094;28;20046;-56
2023/12/08 06:41:50;;;;;;;25.08;11.50;;;;;;;3.46;71.25;99760.44;10292973;28;20674;-57
2023/12/08 06:46:52;;;;;;;29.08;11.07;;;;;;;3.48;71.55;99763.78;10278804;28;20038;-56
2023/12/08 06:51:53;;;;;;;28.50;11.48;;;;;;;3.40;71.88;99766.28;10293781;28;20042;-57
2023/12/08 06:56:54;;;;;;;27.88;11.30;;;;;;;3.40;72.19;99767.16;10297828;28;20058;-58
2023/12/08 07:01:56;;;;;;;24.80;10.85;;;;;;;3.34;72.55;99757.09;10296965;28;20053;-57
2023/12/08 07:06:57;;;;;;;26.92;11.50;;;;;;;3.27;72.44;99750.69;10302379;28;20371;-58
2023/12/08 07:11:59;;;;;;;25.60;11.27;;;;;;;3.32;72.63;99743.13;10301112;28;20069;-59
2023/12/08 07:17:01;;;;;;;26.65;10.95;;;;;;;3.34;72.59;99746.47;10310657;28;20046;-58
2023/12/08 07:22:02;;;;;;;32.53;11.27;;;;;;;3.33;72.88;99750.94;10303215;28;20280;-60
2023/12/08 07:27:04;;;;;;;28.38;12.55;;;;;;;3.32;73.08;99756.41;10304762;28;20054;-65
2023/12/08 07:32:06;;;;;;;30.45;11.35;;;;;;;3.41;73.04;99757.34;10302631;28;20137;-65
2023/12/08 07:37:07;;;;;;;30.70;11.77;;;;;;;3.41;73.26;99760.84;10306240;28;20367;-66
2023/12/08 07:42:09;;;;;;;32.72;12.57;;;;;;;3.41;73.22;99774.13;10310147;28;20130;-66
2023/12/08 07:47:10;;;;;;;30.85;12.27;;;;;;;3.50;72.83;99759.16;10303732;28;20038;-66
2023/12/08 07:52:14;;;;;;;33.08;12.80;;;;;;;3.50;73.34;99713.97;10305303;28;20051;-67
2023/12/08 07:57:15;;;;;;;34.00;14.07;;;;;;;3.56;73.50;99726.69;10302865;28;20046;-63
2023/12/08 08:02:17;;;;;;;28.30;11.27;;;;;;;3.58;73.58;99754.78;10304206;28;20054;-66
2023/12/08 08:07:18;;;;;;;28.73;11.55;;;;;;;3.57;73.73;99747.78;10299375;28;20050;-63
2023/12/08 08:12:20;;;;;;;33.75;13.63;;;;;;;3.68;73.59;99732.63;10299279;28;20409;-67
2023/12/08 08:17:22;;;;;;;32.10;11.45;;;;;;;3.72;73.70;99742.81;10300977;28;20952;-67
2023/12/08 08:22:24;;;;;;;32.35;12.52;;;;;;;3.82;73.18;99731.31;10303344;28;20150;-63
2023/12/08 08:27:33;;;;;;;32.97;12.23;;;;;;;3.71;73.98;99749.13;10299301;28;20502;-68
2023/12/08 08:32:34;;;;;;;33.58;13.57;;;;;;;3.64;74.22;99758.66;10301161;28;20133;-67
2023/12/08 08:37:36;;;;;;;37.50;13.27;;;;;;;3.71;74.25;99748.28;10337626;28;20042;-63
2023/12/08 08:42:38;;;;;;;37.30;14.40;;;;;;;3.81;74.17;99748.22;10321729;28;20958;-63
2023/12/08 08:47:39;;;;;;;38.90;15.13;;;;;;;3.86;74.37;99741.50;10341184;28;20063;-62
2023/12/08 08:52:41;;;;;;;35.25;13.95;;;;;;;4.00;74.44;99748.13;10343586;28;20049;-62
2023/12/08 08:57:44;;;;;;;33.35;14.70;;;;;;;4.13;74.32;99734.50;10327764;28;20063;-61
2023/12/08 09:02:49;;;;;;;34.25;13.75;;;;;;;4.22;74.65;99736.25;10339807;28;20124;-61
2023/12/08 09:07:51;;;;;;;32.70;13.02;;;;;;;4.25;74.40;99751.09;10344500;28;20620;-62
2023/12/08 09:12:52;;;;;;;32.50;12.07;;;;;;;4.28;74.24;99751.59;10349641;28;20038;-61
2023/12/08 09:17:55;;;;;;;34.22;13.32;;;;;;;4.17;74.67;99759.81;10347454;28;20042;-61
2023/12/08 09:22:56;;;;;;;33.35;13.55;;;;;;;4.25;74.36;99759.06;10348693;28;20039;-61
2023/12/08 09:27:58;;;;;;;32.88;13.45;;;;;;;4.17;74.49;99765.13;10350364;28;20046;-61
2023/12/08 09:32:59;;;;;;;32.83;14.15;;;;;;;4.12;74.68;99773.53;10347894;28;20061;-61
2023/12/08 09:38:01;;;;;;;31.90;13.25;;;;;;;4.12;74.68;99762.06;10350578;28;20061;-62
2023/12/08 09:43:39;;;;;;;33.15;13.77;;;;;;;4.20;74.53;99778.13;10328088;28;20077;-66
2023/12/08 09:48:43;;;;;;;;;;;;;;;4.30;74.38;99776.22;10274451;28;20523;-65
2023/12/08 09:53:46;;;;;;;34.50;14.75;;;;;;;4.36;74.51;99772.13;10311852;28;19921;-60
2023/12/08 09:58:48;;;;;;;37.67;15.15;;;;;;;4.40;74.58;99757.53;10306467;28;20047;-61
2023/12/08 10:03:50;;;;;;;38.03;15.38;;;;;;;4.41;74.79;99763.72;10302873;28;20066;-61
2023/12/08 10:08:51;;;;;;;36.25;14.73;;;;;;;4.53;75.15;99770.50;10298166;28;20527;-60
2023/12/08 10:13:52;;;;;;;34.72;15.23;;;;;;;4.57;75.16;99767.38;10295477;28;20050;-60
2023/12/08 10:19:07;;;;;;;36.20;15.30;;;;;;;4.66;74.87;99754.97;10296467;28;20497;-61
2023/12/08 10:24:09;;;;;;;43.17;15.40;;;;;;;4.77;74.93;99768.03;10300373;28;20038;-60
2023/12/08 10:29:11;;;;;;;36.25;13.57;;;;;;;4.84;75.22;99762.97;10296563;28;20506;-61
2023/12/08 10:34:13;;;;;;;35.05;14.15;;;;;;;4.79;74.83;99751.09;10298830;28;20042;-61
2023/12/08 10:39:17;;;;;;;34.20;13.90;;;;;;;4.80;75.31;99745.63;10302097;28;20116;-59
2023/12/08 10:44:20;;;;;;;34.15;13.65;;;;;;;4.87;75.42;99745.81;10299025;28;20059;-61
2023/12/08 10:49:25;;;;;;;34.20;13.70;;;;;;;4.98;75.24;99742.94;10298048;28;20062;-60
2023/12/08 10:54:27;;;;;;;37.28;14.43;;;;;;;5.05;75.66;99745.78;10303750;28;20073;-61
2023/12/08 10:59:31;;;;;;;38.85;14.88;;;;;;;5.09;75.84;99744.50;10302722;28;20057;-61
2023/12/08 11:04:35;;;;;;;32.38;14.15;;;;;;;5.11;75.11;99755.81;10303762;28;20055;-58
2023/12/08 11:09:40;;;;;;;31.50;13.02;;;;;;;5.17;74.82;99749.88;10302182;28;20058;-58
2023/12/08 11:14:47;;;;;;;28.30;13.23;;;;;;;5.22;74.87;99749.44;10310659;28;20057;-59
2023/12/08 11:19:49;;;;;;;38.00;15.82;;;;;;;5.26;75.17;99750.78;10307305;28;20047;-58
2023/12/08 11:24:50;;;;;;;33.72;15.55;;;;;;;5.30;74.90;99747.63;10301957;28;20075;-61
2023/12/08 11:30:05;;;;;;;34.53;15.15;;;;;;;5.32;74.70;99742.16;10304969;28;20332;-59
2023/12/08 11:35:12;;;;;;;37.30;15.02;;;;;;;5.36;75.43;99743.50;10302093;28;20054;-60
2023/12/08 11:40:13;;;;;;;42.45;17.38;;;;;;;5.40;75.16;99746.69;10307119;28;20453;-59
2023/12/08 11:45:18;;;;;;;45.80;17.17;;;;;;;5.42;75.48;99752.72;10290500;28;20627;-60
2023/12/08 11:50:19;;;;;;;38.20;16.15;;;;;;;5.34;75.36;99761.50;10311536;28;20402;-60
2023/12/08 11:55:24;;;;;;;34.78;15.43;;;;;;;5.33;74.90;99758.00;10295704;28;20067;-59
2023/12/08 12:00:38;;;;;;;33.47;14.88;;;;;;;5.44;74.85;99753.38;10308895;28;20509;-58
2023/12/08 12:05:39;;;;;;;35.33;14.82;;;;;;;5.44;74.81;99764.88;10289706;28;20125;-57
2023/12/08 12:10:43;;;;;;;37.13;15.50;;;;;;;5.47;74.76;99772.56;10304018;28;20461;-58
2023/12/08 12:15:44;;;;;;;36.17;16.55;;;;;;;5.53;74.93;99763.13;10309596;28;20061;-60
2023/12/08 12:20:48;;;;;;;41.03;15.68;;;;;;;5.53;75.69;99760.44;10309181;28;20137;-58
2023/12/08 12:25:49;;;;;;;38.97;15.05;;;;;;;5.52;75.30;99772.09;10312519;28;20098;-61
2023/12/08 12:30:51;;;;;;;42.38;16.73;;;;;;;5.60;74.86;99749.97;10278311;28;20038;-59
2023/12/08 12:35:53;;;;;;;40.55;15.68;;;;;;;5.57;75.01;99748.47;10279962;28;22472;-61
2023/12/08 12:41:24;;;;;;;45.38;16.70;;;;;;;5.66;74.98;99746.66;10309979;28;20046;-60
2023/12/08 12:46:26;;;;;;;;;;;;;;;5.64;75.40;99738.81;10293436;28;20042;-60
2023/12/08 12:51:35;;;;;;;50.90;17.58;;;;;;;5.68;75.10;99747.34;10308832;28;19926;-59
2023/12/08 12:56:48;;;;;;;45.40;16.13;;;;;;;5.71;75.26;99758.53;10311015;28;20049;-59
2023/12/08 13:01:50;;;;;;;43.08;16.77;;;;;;;5.58;75.83;99760.78;10299669;28;20038;-58
2023/12/08 13:06:52;;;;;;;43.97;18.45;;;;;;;5.58;75.40;99752.78;10309627;28;20070;-59
2023/12/08 13:11:53;;;;;;;51.03;17.83;;;;;;;5.66;74.66;99752.00;10290948;28;20050;-58
2023/12/08 13:16:54;;;;;;;51.83;18.88;;;;;;;5.61;75.14;99762.28;10291342;28;20050;-59
2023/12/08 13:21:56;;;;;;;40.72;15.95;;;;;;;5.53;75.70;99771.13;10293026;28;20046;-60
2023/12/08 13:26:57;;;;;;;49.92;16.55;;;;;;;5.45;75.56;99776.38;10303185;28;20046;-62
2023/12/08 13:31:59;;;;;;;55.15;17.98;;;;;;;5.41;75.14;99780.34;10304157;28;20061;-61
2023/12/08 13:37:03;;;;;;;53.50;17.92;;;;;;;5.36;75.75;99783.50;10288642;28;20508;-61
2023/12/08 13:42:05;;;;;;;65.20;18.20;;;;;;;5.38;75.29;99792.16;10302403;28;20042;-62
2023/12/08 13:47:07;;;;;;;58.08;18.48;;;;;;;5.33;75.28;99787.31;10297977;28;20050;-61
2023/12/08 13:52:09;;;;;;;55.17;19.55;;;;;;;5.32;75.93;99798.13;10298981;28;20057;-61
2023/12/08 13:57:11;;;;;;;59.22;21.15;;;;;;;5.30;76.44;99803.59;10282490;28;20609;-61
2023/12/08 14:02:12;;;;;;;55.25;19.08;;;;;;;5.31;75.50;99799.09;10288617;28;20047;-62
2023/12/08 14:07:13;;;;;;;57.25;18.33;;;;;;;5.45;75.53;99813.69;10298296;28;20038;-62
2023/12/08 14:12:15;;;;;;;65.22;20.90;;;;;;;5.40;76.12;99816.00;10300679;28;20054;-62
2023/12/08 14:17:17;;;;;;;59.60;18.65;;;;;;;5.31;76.54;99817.75;10291289;28;20038;-61
2023/12/08 14:22:18;;;;;;;55.28;17.60;;;;;;;5.35;76.02;99821.78;10285184;28;20557;-63
2023/12/08 14:27:21;;;;;;;62.53;19.00;;;;;;;5.30;76.08;99824.91;10288272;28;20050;-62
2023/12/08 14:32:23;;;;;;;70.00;17.48;;;;;;;5.24;76.74;99830.03;10303980;28;20513;-62
2023/12/08 14:37:24;;;;;;;60.20;16.25;;;;;;;5.21;76.57;99819.69;10311979;28;20046;-61
2023/12/08 14:42:26;;;;;;;56.00;16.67;;;;;;;5.28;76.47;99829.56;10309246;28;20077;-59
2023/12/08 14:47:28;;;;;;;58.28;16.33;;;;;;;5.21;76.15;99827.66;10290549;28;20137;-61
2023/12/08 14:52:30;;;;;;;60.55;16.13;;;;;;;5.25;76.83;99834.34;10303657;28;20108;-59
2023/12/08 14:57:31;;;;;;;65.40;20.15;;;;;;;5.34;76.46;99844.94;10307577;28;20058;-59
2023/12/08 15:02:32;;;;;;;73.47;20.95;;;;;;;5.34;76.46;99839.59;10310060;28;20038;-59
2023/12/08 15:07:34;;;;;;;60.05;18.13;;;;;;;5.39;76.81;99831.16;10304282;28;20433;-60
2023/12/08 15:12:36;;;;;;;66.63;16.95;;;;;;;5.41;76.69;99834.50;10311359;28;20047;-59
2023/12/08 15:17:38;;;;;;;70.13;17.58;;;;;;;5.27;76.45;99841.22;10291353;28;20153;-58
2023/12/08 15:22:39;;;;;;;60.88;17.75;;;;;;;5.28;76.43;99848.22;10309141;28;20072;-59
2023/12/08 15:27:41;;;;;;;72.00;18.23;;;;;;;5.44;76.07;99850.16;10293878;28;20053;-59
2023/12/08 15:32:42;;;;;;;64.30;18.77;;;;;;;5.55;76.43;99857.94;10298279;28;20711;-58
2023/12/08 15:37:44;;;;;;;63.17;18.30;;;;;;;5.52;76.73;99870.72;10302071;28;20045;-59
2023/12/08 15:42:46;;;;;;;64.10;15.82;;;;;;;5.49;76.60;99882.53;10304526;28;20042;-59
2023/12/08 15:47:47;;;;;;;70.88;19.00;;;;;;;5.57;76.48;99881.78;10303815;28;20125;-55
2023/12/08 15:52:49;;;;;;;68.10;18.70;;;;;;;5.66;76.16;99872.00;10287523;28;20043;-56
2023/12/08 15:57:50;;;;;;;69.03;18.98;;;;;;;5.60;76.34;99892.09;10305059;28;20046;-56
2023/12/08 16:02:52;;;;;;;69.45;18.88;;;;;;;5.62;76.28;99900.78;10304029;28;20468;-56
2023/12/08 16:07:53;;;;;;;71.00;18.88;;;;;;;5.64;76.19;99905.97;10304028;28;20043;-57
2023/12/08 16:12:55;;;;;;;68.18;20.35;;;;;;;5.72;76.50;99914.03;10300262;28;20754;-58
2023/12/08 16:17:56;;;;;;;69.35;18.50;;;;;;;5.69;75.76;99915.19;10303016;28;20048;-57
2023/12/08 16:22:58;;;;;;;69.10;18.88;;;;;;;5.71;76.00;99915.03;10302263;28;20109;-57
2023/12/08 16:27:59;;;;;;;71.40;20.02;;;;;;;5.76;76.09;99924.22;10300556;28;20047;-57
2023/12/08 16:33:01;;;;;;;81.90;22.20;;;;;;;5.78;75.85;99921.41;10300261;28;20035;-58
2023/12/08 16:38:03;;;;;;;67.32;19.08;;;;;;;5.80;76.32;99930.09;10304722;28;20056;-56
2023/12/08 16:43:04;;;;;;;72.60;21.05;;;;;;;5.75;76.83;99927.88;10284652;28;20046;-58
2023/12/08 16:48:06;;;;;;;80.18;21.33;;;;;;;5.85;75.94;99929.63;10290036;28;20057;-56
2023/12/08 16:53:07;;;;;;;67.57;20.35;;;;;;;5.88;76.18;99930.13;10301515;28;20502;-58
2023/12/08 16:58:09;;;;;;;74.25;20.40;;;;;;;5.87;75.92;99927.66;10299090;28;20398;-58
2023/12/08 17:03:10;;;;;;;74.20;21.95;;;;;;;5.90;76.67;99938.00;10295767;28;20039;-59
2023/12/08 17:08:12;;;;;;;76.90;21.73;;;;;;;5.90;76.69;99951.31;10295052;28;20104;-59
2023/12/08 17:13:13;;;;;;;85.47;20.45;;;;;;;5.89;77.00;99945.16;10295713;28;20046;-58
2023/12/08 17:18:15;;;;;;;81.45;22.25;;;;;;;5.95;75.85;99954.41;10296313;28;20050;-57
2023/12/08 17:23:16;;;;;;;100.15;21.70;;;;;;;5.89;76.72;99966.50;10281626;28;20050;-58
2023/12/08 17:28:18;;;;;;;79.80;21.27;;;;;;;5.94;76.44;99961.56;10298127;28;20054;-58
2023/12/08 17:33:20;;;;;;;62.88;19.05;;;;;;;5.99;76.30;99970.94;10296456;28;20417;-59
2023/12/08 17:38:21;;;;;;;75.70;22.13;;;;;;;6.06;75.86;99972.84;10291719;28;20502;-58
2023/12/08 17:43:24;;;;;;;83.45;22.83;;;;;;;6.14;76.39;99980.03;10290630;28;20058;-58
2023/12/08 17:48:26;;;;;;;80.57;20.67;;;;;;;6.15;76.19;99977.22;10291774;28;20117;-59
2023/12/08 17:53:27;;;;;;;71.78;22.77;;;;;;;6.14;76.26;99986.22;10295625;28;20487;-59
2023/12/08 17:58:29;;;;;;;72.28;20.77;;;;;;;6.10;76.13;99995.53;10290250;28;20058;-58
2023/12/08 18:03:31;;;;;;;71.88;21.23;;;;;;;6.14;76.30;99996.91;10297569;28;20045;-57
2023/12/08 18:08:33;;;;;;;66.85;19.80;;;;;;;6.16;76.44;100004.72;10298742;28;20053;-57
2023/12/08 18:13:34;;;;;;;69.22;19.08;;;;;;;6.09;76.22;100011.69;10298017;28;20042;-57
2023/12/08 18:18:35;;;;;;;70.65;19.13;;;;;;;6.07;76.09;100014.53;10295469;28;20051;-57
2023/12/08 18:23:37;;;;;;;70.10;18.88;;;;;;;6.10;76.11;100010.69;10295993;28;20142;-56
2023/12/08 18:28:39;;;;;;;66.55;18.73;;;;;;;6.10;75.97;100024.03;10301258;28;21116;-56
2023/12/08 18:34:04;;;;;;;64.85;19.20;;;;;;;6.09;76.43;100031.22;10289222;28;20386;-55
2023/12/08 18:39:06;;;;;;;74.18;18.65;;;;;;;6.13;76.11;100042.41;10284651;28;20042;-57
2023/12/08 18:44:08;;;;;;;71.95;20.52;;;;;;;6.19;75.94;100032.97;10297988;28;20050;-56
2023/12/08 18:49:10;;;;;;;73.82;21.50;;;;;;;6.17;76.23;100033.09;10296885;28;20050;-57
2023/12/08 18:54:14;;;;;;;79.63;21.70;;;;;;;6.20;76.68;100039.97;10271821;28;20046;-56
2023/12/08 18:59:15;;;;;;;75.57;21.58;;;;;;;6.25;76.27;100048.34;10300968;28;20058;-58
2023/12/08 19:04:17;;;;;;;64.53;19.67;;;;;;;6.23;75.94;100053.00;10289335;28;20157;-57
2023/12/08 19:09:18;;;;;;;73.45;23.92;;;;;;;6.08;76.23;100050.91;10282459;28;20070;-56
2023/12/08 19:14:20;;;;;;;94.45;26.13;;;;;;;5.87;77.54;100048.50;10304752;28;20116;-58
2023/12/08 19:19:23;;;;;;;84.43;24.65;;;;;;;5.87;77.04;100061.00;10298891;28;20051;-58
2023/12/08 19:24:25;;;;;;;93.88;25.35;;;;;;;5.87;76.79;100058.34;10305759;28;20544;-58
2023/12/08 19:29:27;;;;;;;94.30;26.60;;;;;;;5.89;76.68;100057.19;10288361;28;20062;-59
2023/12/08 19:34:31;;;;;;;81.22;21.83;;;;;;;5.83;76.46;100052.47;10302801;28;20142;-57
2023/12/08 19:39:32;;;;;;;84.28;24.60;;;;;;;5.93;76.96;100057.72;10306810;28;20713;-59
2023/12/08 19:44:34;;;;;;;76.85;23.33;;;;;;;6.04;76.74;100068.22;10295510;28;20484;-59
2023/12/08 19:49:35;;;;;;;85.55;22.75;;;;;;;6.05;77.05;100067.19;10307733;28;20051;-58
2023/12/08 19:54:36;;;;;;;75.63;20.88;;;;;;;6.05;76.98;100069.03;10302517;28;20054;-57
2023/12/08 19:59:38;;;;;;;61.20;20.92;;;;;;;6.08;77.28;100068.72;10298071;28;20039;-58
2023/12/08 20:04:39;;;;;;;62.60;20.73;;;;;;;6.14;76.72;100092.97;10299760;28;20081;-59
2023/12/08 20:09:41;;;;;;;55.33;17.45;;;;;;;5.87;78.11;100104.53;10266055;28;20054;-58
2023/12/08 20:14:42;;;;;;;46.75;16.25;;;;;;;5.72;78.40;100114.03;10296353;28;20046;-58
2023/12/08 20:19:44;;;;;;;60.88;17.55;;;;;;;5.69;78.55;100107.19;10297268;28;20228;-58
2023/12/08 20:24:48;;;;;;;67.80;19.45;;;;;;;5.82;77.75;100120.13;10298428;28;20060;-59
2023/12/08 20:29:50;;;;;;;63.83;20.40;;;;;;;5.93;77.85;100119.09;10300163;28;20047;-58
2023/12/08 20:34:52;;;;;;;65.63;19.58;;;;;;;5.97;77.32;100117.81;10289252;28;20074;-58
2023/12/08 20:39:53;;;;;;;64.97;21.63;;;;;;;6.02;77.43;100117.34;10294291;28;20050;-58
2023/12/08 20:44:55;;;;;;;66.22;18.13;;;;;;;6.15;77.10;100113.31;10280904;28;20042;-58
2023/12/08 20:49:57;;;;;;;62.30;18.63;;;;;;;6.26;76.41;100120.25;10295838;28;20049;-58
2023/12/08 20:54:58;;;;;;;64.07;20.58;;;;;;;6.32;76.79;100132.16;10290986;28;20140;-58
2023/12/08 21:00:01;;;;;;;55.10;19.25;;;;;;;6.35;76.23;100135.34;10295613;28;20105;-58
2023/12/08 21:05:03;;;;;;;60.22;19.83;;;;;;;6.40;76.79;100136.69;10280869;28;20494;-58
2023/12/08 21:10:06;;;;;;;61.88;18.77;;;;;;;6.45;76.31;100131.75;10294382;28;20060;-58
2023/12/08 21:15:08;;;;;;;57.15;18.63;;;;;;;6.51;76.30;100134.63;10298322;28;20035;-58
2023/12/08 21:20:10;;;;;;;47.22;18.77;;;;;;;6.54;76.44;100141.50;10298542;28;20061;-58
2023/12/08 21:25:12;;;;;;;51.92;17.88;;;;;;;6.55;76.39;100132.50;10285190;28;20054;-58
2023/12/08 21:30:13;;;;;;;45.22;18.90;;;;;;;6.53;76.44;100131.81;10295095;28;20043;-58
2023/12/08 21:35:15;;;;;;;54.65;16.80;;;;;;;6.57;76.50;100145.69;10297209;28;20064;-58
2023/12/08 21:40:17;;;;;;;45.63;17.70;;;;;;;6.58;76.56;100148.22;10295093;28;20054;-58
2023/12/08 21:45:19;;;;;;;58.67;20.83;;;;;;;6.59;76.27;100157.06;10295968;28;20046;-58
2023/12/08 21:50:23;;;;;;;66.18;21.05;;;;;;;6.59;75.94;100160.56;10275737;28;20053;-58
2023/12/08 21:55:24;;;;;;;60.88;22.95;;;;;;;6.50;76.81;100142.81;10293958;28;20070;-58
2023/12/08 22:00:26;;;;;;;52.88;19.40;;;;;;;6.39;76.91;100151.88;10298151;28;20093;-58
2023/12/08 22:05:27;;;;;;;69.40;20.70;;;;;;;6.43;76.51;100160.44;10297641;28;20048;-58
2023/12/08 22:10:29;;;;;;;64.22;21.08;;;;;;;6.26;77.81;100170.13;10296395;28;20049;-58
2023/12/08 22:15:31;;;;;;;64.75;20.48;;;;;;;6.29;76.75;100161.81;10278397;28;20518;-59
2023/12/08 22:20:32;;;;;;;53.95;19.63;;;;;;;6.45;76.43;100166.47;10291355;28;20053;-58
2023/12/08 22:25:36;;;;;;;45.90;17.00;;;;;;;6.50;76.80;100167.69;10297231;28;20046;-58
2023/12/08 22:30:38;;;;;;;45.33;17.92;;;;;;;6.59;76.39;100165.91;10276009;28;20050;-58
2023/12/08 22:35:39;;;;;;;51.13;17.27;;;;;;;6.67;76.40;100173.97;10291712;28;20773;-58
2023/12/08 22:40:41;;;;;;;48.88;19.52;;;;;;;6.72;75.79;100170.84;10278516;28;20043;-58
2023/12/08 22:45:42;;;;;;;47.28;18.13;;;;;;;6.67;76.77;100170.47;10300881;28;20039;-58
2023/12/08 22:50:44;;;;;;;43.65;17.17;;;;;;;6.66;76.68;100164.31;10301957;28;20039;-57
2023/12/08 22:55:51;;;;;;;;;;;;;;;6.65;76.25;100175.97;10300461;28;20054;-58
2023/12/08 23:00:53;;;;;;;40.80;15.50;;;;;;;6.61;76.20;100171.94;10300862;28;19938;-58
2023/12/08 23:05:54;;;;;;;48.85;17.25;;;;;;;6.67;76.18;100168.63;10303115;28;20157;-57
2023/12/08 23:10:56;;;;;;;43.92;17.08;;;;;;;6.72;76.88;100168.19;10302591;28;20529;-57